Wednesday, December 19, 2018, 10:53 AM EST
Back to Local

KCAR, Caribou Municipal Airport

Location: Caribou, ME, United States Lat: 46.867
Local Time: 10:53 AM EST (15:53 GMT) Lon: -68.017
Time Zone: US/Eastern Elev: 626 ft

Show me the last for .
Show Decoded

2018-12-19 09:54 METAR KCAR 191454Z AUTO 28004KT 10SM CLR M08/M14 A2986 RMK AO2 SLP128 T10781139
                 50008 =
2018-12-19 08:54 METAR KCAR 191354Z AUTO 00000KT 10SM CLR M10/M14 A2988 RMK AO2 SLP131 T11001139
                 =
2018-12-19 07:54 METAR KCAR 191254Z AUTO VRB03KT 10SM CLR M12/M15 A2985 RMK AO2 SLP124 T11221150
                 =
2018-12-19 06:54 METAR KCAR 191154Z AUTO 28003KT 10SM CLR M12/M15 A2984 RMK AO2 SLP119 T11171150
                 11067 21117 51009 =
2018-12-19 05:54 METAR KCAR 191054Z AUTO VRB04KT 10SM CLR M10/M14 A2984 RMK AO2 SLP119 T11001144
                 =
2018-12-19 05:23 METAR KCAR 191023Z AUTO 30006KT 10SM FEW017 SCT025 M09/M13 A2983 RMK AO2
                 T10941133 =
2018-12-19 04:54 METAR KCAR 190954Z AUTO 28004KT 10SM BKN028 M09/M13 A2983 RMK AO2 SLP116
                 T10891133 =
2018-12-19 04:21 METAR KCAR 190921Z AUTO 29005KT 10SM SCT025 M09/M13 A2982 RMK AO2 T10891133 =
2018-12-19 03:54 METAR KCAR 190854Z AUTO 28004KT 10SM BKN027 M08/M12 A2981 RMK AO2 SLP110
                 T10781122 51025 =
2018-12-19 02:54 METAR KCAR 190754Z AUTO 31008G16KT 10SM OVC027 M07/M13 A2979 RMK AO2 SLP102
                 T10721128 =
2018-12-19 01:54 METAR KCAR 190654Z AUTO 31012G23KT 10SM OVC028 M07/M12 A2977 RMK AO2 PK WND
                 31026/0636 SLP095 T10671122 =
2018-12-19 00:54 METAR KCAR 190554Z AUTO 32016G20KT 10SM OVC028 M07/M12 A2974 RMK AO2
                 SNB0455E15B31E41 SLP083 P0000 60000 T10671117 11044 21067 51010 =
2018-12-19 00:25 METAR KCAR 190525Z AUTO 32013G18KT 10SM OVC029 M06/M11 A2973 RMK AO2 SNB0455E15
                 P0000 T10611111 =
2018-12-18 23:54 METAR KCAR 190454Z AUTO 31015G25KT 8SM OVC033 M06/M11 A2973 RMK AO2 PK WND
                 30027/0443 SLP080 T10611111 410221061 =
2018-12-18 22:54 METAR KCAR 190354Z AUTO 31015G22KT 10SM OVC036 M06/M11 A2972 RMK AO2 SLP077
                 T10561111 =
2018-12-18 21:54 METAR KCAR 190254Z AUTO 32014G22KT 10SM OVC040 M06/M11 A2971 RMK AO2 SLP073
                 T10561111 53015 =
2018-12-18 20:54 METAR KCAR 190154Z AUTO 31013G26KT 10SM OVC038 M05/M11 A2969 RMK AO2 PK WND
                 32027/0125 SLP067 T10501106 =
2018-12-18 19:54 METAR KCAR 190054Z AUTO 32017G27KT 9SM OVC035 M05/M11 A2968 RMK AO2 PK WND
                 33027/0053 SLP063 T10501106 =
2018-12-18 18:54 METAR KCAR 182354Z AUTO 31015G25KT 10SM OVC041 M04/M11 A2966 RMK AO2 SLP058
                 60000 T10441106 11044 21056 51020 =
2018-12-18 17:54 METAR KCAR 182254Z AUTO 31013G22KT 10SM FEW028 OVC033 M05/M10 A2965 RMK AO2 PK
                 WND 31026/2214 SLP053 T10501100 =
2018-12-18 16:54 METAR KCAR 182154Z AUTO 30015G23KT 10SM OVC041 M05/M10 A2963 RMK AO2 PK WND
                 31028/2144 SLP047 T10501100 =
2018-12-18 15:54 METAR KCAR 182054Z AUTO 31014G23KT 10SM BKN041 M06/M11 A2960 RMK AO2 PK WND
                 32026/2023 SLP037 60000 T10561106 53024 =
2018-12-18 14:54 METAR KCAR 181954Z AUTO 31017G22KT 10SM OVC035 M05/M11 A2958 RMK AO2 PK WND
                 30026/1902 SLP027 T10501106 =
2018-12-18 13:54 METAR KCAR 181854Z AUTO 32018G25KT 10SM OVC031 M05/M10 A2955 RMK AO2 PK WND
                 33032/1823 UPB35E38 SLP018 P0000 T10501100 =
2018-12-18 12:54 METAR KCAR 181754Z AUTO 32018G28KT 6SM HZ OVC029 M06/M10 A2953 RMK AO2 PK WND
                 34031/1720 SNB1658E08 SLP011 P0000 60000 T10561100 11050 21061 53008 =
2018-12-18 11:54 METAR KCAR 181654Z AUTO 32020G29KT 4SM HZ OVC025 M06/M11 A2952 RMK AO2 PK WND
                 32029/1653 UPE1556B05E09B27E39SNB1556E05 SLP007 P0000 T10561106 =
2018-12-18 11:10 METAR KCAR 181610Z AUTO 32017G29KT 4SM HZ OVC024 M06/M11 A2951 RMK AO2 PK WND
                 32029/1600 UPE1556B05E09SNB1556E05 P0000 T10561106 =
2018-12-18 11:03 METAR KCAR 181603Z AUTO 32019G30KT 2 1/2SM -SN OVC025 M06/M11 A2951 RMK AO2 PK
                 WND 32029/1600 VIS 1 3/4V4 UPE1556SNB1556 P0000 T10561106 =
2018-12-18 10:54 METAR KCAR 181554Z AUTO 32021G33KT 3SM UP OVC025 M06/M11 A2951 RMK AO2 PK WND
                 33033/1553 UPE1457B06 SLP006 P0000 T10561106 =

Support USWX by starting your Amazon purchase here.